createdAt,value
2018-03-10T00:00:01.151Z,10.79
2018-03-10T00:01:11.268Z,10.69
2018-03-10T00:02:21.384Z,10.67
2018-03-10T00:03:31.214Z,10.67
2018-03-10T00:04:41.013Z,10.58
2018-03-10T00:05:50.805Z,10.51
2018-03-10T00:07:00.861Z,10.55
2018-03-10T00:08:10.160Z,10.51
2018-03-10T00:09:19.711Z,10.46
2018-03-10T00:10:29.577Z,10.41
2018-03-10T00:11:39.389Z,10.35
2018-03-10T00:12:49.197Z,10.46
2018-03-10T00:13:59.321Z,10.42
2018-03-10T00:15:09.129Z,10.46
2018-03-10T00:16:19.205Z,10.39
2018-03-10T00:17:29.342Z,10.51
2018-03-10T00:18:39.470Z,10.51
2018-03-10T00:19:49.640Z,10.54
2018-03-10T00:20:59.238Z,10.42
2018-03-10T00:22:08.547Z,10.46
2018-03-10T00:23:18.133Z,10.36
2018-03-10T00:24:27.940Z,10.38
2018-03-10T00:25:38.009Z,10.36
2018-03-10T00:26:47.806Z,10.35
2018-03-10T00:27:57.601Z,10.36
2018-03-10T00:29:07.701Z,10.35
2018-03-10T00:30:17.772Z,10.42
2018-03-10T00:31:27.619Z,10.44
2018-03-10T00:32:37.712Z,10.39
2018-03-10T00:33:47.781Z,10.52
2018-03-10T00:34:57.843Z,10.51
2018-03-10T00:36:07.634Z,10.59
2018-03-10T00:37:17.442Z,10.55
2018-03-10T00:38:27.268Z,10.57
2018-03-10T00:39:37.067Z,10.49
2018-03-10T00:40:47.291Z,10.44
2018-03-10T00:41:56.820Z,10.41
2018-03-10T00:43:06.356Z,10.47
2018-03-10T00:44:15.371Z,10.38
2018-03-10T00:45:24.921Z,10.41
2018-03-10T00:46:34.725Z,10.49
2018-03-10T00:47:44.531Z,10.57
2018-03-10T00:48:54.325Z,10.52
2018-03-10T00:50:04.130Z,10.57
2018-03-10T00:51:14.247Z,10.52
2018-03-10T00:52:24.047Z,10.57
2018-03-10T00:53:33.875Z,10.55
2018-03-10T00:54:43.979Z,10.39
2018-03-10T00:55:53.550Z,10.39
2018-03-10T00:57:03.650Z,10.35
2018-03-10T00:58:13.187Z,10.41
2018-03-10T00:59:23.270Z,10.57
2018-03-10T01:00:33.321Z,10.52
2018-03-10T01:01:43.381Z,10.51
2018-03-10T01:02:53.458Z,10.51
2018-03-10T01:04:03.519Z,10.51
2018-03-10T01:05:13.323Z,10.38
2018-03-10T01:06:23.485Z,10.29
2018-03-10T01:07:33.023Z,10.26
2018-03-10T01:08:42.554Z,10.23
2018-03-10T01:09:52.355Z,10.29
2018-03-10T01:11:02.454Z,10.21
2018-03-10T01:12:12.562Z,10.26
2018-03-10T01:13:22.371Z,10.23
2018-03-10T01:14:31.912Z,10.29
2018-03-10T01:15:41.975Z,10.32
2018-03-10T01:16:52.041Z,10.39
2018-03-10T01:18:02.188Z,10.32
2018-03-10T01:19:12.254Z,10.23
2018-03-10T01:20:22.331Z,10.25
2018-03-10T01:21:32.125Z,10.26
2018-03-10T01:22:42.197Z,10.21
2018-03-10T01:23:52.058Z,10.17
2018-03-10T01:25:02.137Z,10.14
2018-03-10T01:26:11.925Z,10.03
2018-03-10T01:27:21.752Z,10
2018-03-10T01:28:31.808Z,10.03
2018-03-10T01:29:41.626Z,9.92
2018-03-10T01:30:51.421Z,9.92
2018-03-10T01:32:01.220Z,9.82
2018-03-10T01:33:11.027Z,9.81
2018-03-10T01:34:21.079Z,9.88
2018-03-10T01:35:30.937Z,9.82
2018-03-10T01:36:40.996Z,9.75
2018-03-10T01:37:51.081Z,9.77
2018-03-10T01:39:01.261Z,9.77
2018-03-10T01:40:11.328Z,9.85
2018-03-10T01:41:21.434Z,9.89
2018-03-10T01:42:31.231Z,9.7
2018-03-10T01:43:41.034Z,9.84
2018-03-10T01:44:50.830Z,9.75
2018-03-10T01:46:00.665Z,9.72
2018-03-10T01:47:10.475Z,9.75
2018-03-10T01:48:20.017Z,9.63
2018-03-10T01:49:29.818Z,9.66
2018-03-10T01:50:39.619Z,9.55
2018-03-10T01:51:49.689Z,9.59
2018-03-10T01:52:59.546Z,9.59
2018-03-10T01:54:09.073Z,9.53
2018-03-10T01:55:19.145Z,9.56
2018-03-10T01:56:29.223Z,9.52
2018-03-10T01:57:39.019Z,9.47
2018-03-10T01:58:48.561Z,9.5
2018-03-10T01:59:58.360Z,9.53
2018-03-10T02:01:08.170Z,9.59
2018-03-10T02:02:18.231Z,9.57
2018-03-10T02:03:28.025Z,9.57
2018-03-10T02:04:38.110Z,9.67
2018-03-10T02:05:47.914Z,9.74
2018-03-10T02:06:57.446Z,9.67
2018-03-10T02:08:07.489Z,9.67
2018-03-10T02:09:16.755Z,9.64
2018-03-10T02:10:26.867Z,9.63
2018-03-10T02:11:36.406Z,9.63
2018-03-10T02:12:46.580Z,9.7
2018-03-10T02:13:56.677Z,9.67
2018-03-10T02:15:06.481Z,9.59
2018-03-10T02:16:16.606Z,9.66
2018-03-10T02:17:26.669Z,9.62
2018-03-10T02:18:36.466Z,9.64
2018-03-10T02:19:46.537Z,9.64
2018-03-10T02:20:56.347Z,9.63
2018-03-10T02:22:08.287Z,9.62
2018-03-10T02:23:18.087Z,9.63
2018-03-10T02:24:27.628Z,9.64
2018-03-10T02:25:37.709Z,9.56
2018-03-10T02:26:47.772Z,9.6
2018-03-10T02:27:57.573Z,9.6
2018-03-10T02:29:07.623Z,9.63
2018-03-10T02:30:17.428Z,9.55
2018-03-10T02:31:27.508Z,9.55
2018-03-10T02:32:37.580Z,9.6
2018-03-10T02:33:47.383Z,9.56
2018-03-10T02:34:56.381Z,9.56
2018-03-10T02:36:06.475Z,9.62
2018-03-10T02:37:16.268Z,9.57
2018-03-10T02:38:26.069Z,9.6
2018-03-10T02:39:36.167Z,9.63
2018-03-10T02:40:46.223Z,9.62
2018-03-10T02:41:56.022Z,9.56
2018-03-10T02:43:05.554Z,9.53
2018-03-10T02:44:15.624Z,9.5
2018-03-10T02:45:25.163Z,9.41
2018-03-10T02:46:34.956Z,9.38
2018-03-10T02:47:44.755Z,9.42
2018-03-10T02:48:54.567Z,9.39
2018-03-10T02:50:04.358Z,9.38
2018-03-10T02:51:14.206Z,9.44
2018-03-10T02:52:24.275Z,9.38
2018-03-10T02:53:33.814Z,9.41
2018-03-10T02:54:43.331Z,9.44
2018-03-10T02:55:53.378Z,9.37
2018-03-10T02:57:03.169Z,9.35
2018-03-10T02:58:12.721Z,9.35
2018-03-10T02:59:23.006Z,9.35
2018-03-10T03:00:32.803Z,9.34
2018-03-10T03:01:42.883Z,9.27
2018-03-10T03:02:52.721Z,9.39
2018-03-10T03:04:02.794Z,9.39
2018-03-10T03:05:12.864Z,9.37
2018-03-10T03:06:22.915Z,9.26
2018-03-10T03:07:32.726Z,9.32
2018-03-10T03:08:42.792Z,9.27
2018-03-10T03:39:50.582Z,6.33
2018-03-10T03:41:00.629Z,6.31
2018-03-10T03:42:10.685Z,6.31
2018-03-10T03:43:20.476Z,6.33
2018-03-10T03:44:30.526Z,6.33
2018-03-10T03:45:40.065Z,6.42
2018-03-10T03:46:49.866Z,6.54
2018-03-10T03:47:59.911Z,6.64
2018-03-10T03:49:09.430Z,6.7
2018-03-10T03:50:19.225Z,6.9
2018-03-10T03:51:29.326Z,6.98
2018-03-10T03:52:39.387Z,7.16
2018-03-10T03:53:49.187Z,7.34
2018-03-10T03:54:59.246Z,7.44
2018-03-10T03:56:08.785Z,7.64
2018-03-10T03:57:18.839Z,7.73
2018-03-10T03:58:28.888Z,7.93
2018-03-10T03:59:38.678Z,7.95
2018-03-10T04:00:48.746Z,8.01
2018-03-10T04:01:58.280Z,8.11
2018-03-10T04:03:08.393Z,8.16
2018-03-10T04:04:18.509Z,8.25
2018-03-10T04:05:28.301Z,8.35
2018-03-10T04:06:38.093Z,8.35
2018-03-10T04:07:48.150Z,8.42
2018-03-10T04:08:58.265Z,8.46
2018-03-10T04:10:07.544Z,8.6
2018-03-10T04:11:17.340Z,8.54
2018-03-10T04:12:27.402Z,8.6
2018-03-10T04:13:37.519Z,8.67
2018-03-10T04:14:47.634Z,8.67
2018-03-10T04:15:57.182Z,8.69
2018-03-10T04:17:06.716Z,8.71
2018-03-10T04:18:16.779Z,8.65
2018-03-10T04:19:26.842Z,8.79
2018-03-10T04:20:36.898Z,8.69
2018-03-10T04:21:46.959Z,8.72
2018-03-10T04:22:56.756Z,8.69
2018-03-10T04:24:06.550Z,8.77
2018-03-10T04:25:16.604Z,8.82
2018-03-10T04:26:26.445Z,8.77
2018-03-10T04:27:36.500Z,8.71
2018-03-10T04:28:46.286Z,8.86
2018-03-10T04:29:56.354Z,8.82
2018-03-10T04:31:06.419Z,8.71
2018-03-10T04:32:16.538Z,8.8
2018-03-10T04:33:26.089Z,8.72
2018-03-10T04:34:35.879Z,8.83
2018-03-10T04:35:45.688Z,8.86
2018-03-10T04:36:55.763Z,8.86
2018-03-10T04:38:05.556Z,8.83
2018-03-10T04:39:15.097Z,8.76
2018-03-10T04:40:25.166Z,8.86
2018-03-10T04:41:34.951Z,8.94
2018-03-10T04:42:45.034Z,8.89
2018-03-10T04:43:54.614Z,8.94
2018-03-10T04:45:04.670Z,8.95
2018-03-10T04:46:14.749Z,9.01
2018-03-10T04:47:24.808Z,9.16
2018-03-10T04:48:34.868Z,9.17
2018-03-10T04:49:44.936Z,9.05
2018-03-10T04:50:54.743Z,9.17
2018-03-10T04:52:04.787Z,9.23
2018-03-10T04:53:14.342Z,9.17
2018-03-10T04:54:24.135Z,9.3
2018-03-10T04:55:33.950Z,9.27
2018-03-10T04:56:43.732Z,9.34
2018-03-10T04:57:53.523Z,9.26
2018-03-10T04:59:03.322Z,9.34
2018-03-10T05:00:13.385Z,9.38
2018-03-10T05:01:23.488Z,9.38
2018-03-10T05:02:33.036Z,9.34
2018-03-10T05:03:42.821Z,9.42
2018-03-10T05:04:52.649Z,9.41
2018-03-10T05:06:02.712Z,9.37
2018-03-10T05:07:12.824Z,9.38
2018-03-10T05:08:22.893Z,9.35
2018-03-10T05:09:32.691Z,9.38
2018-03-10T05:10:42.761Z,9.45
2018-03-10T05:11:52.570Z,9.41
2018-03-10T05:13:02.693Z,9.32
2018-03-10T05:14:12.482Z,9.38
2018-03-10T05:15:22.277Z,9.37
2018-03-10T05:16:32.330Z,9.35
2018-03-10T05:17:42.392Z,9.37
2018-03-10T05:18:52.523Z,9.41
2018-03-10T05:20:02.374Z,9.26
2018-03-10T05:21:11.999Z,9.24
2018-03-10T05:22:21.817Z,9.2
2018-03-10T05:23:31.874Z,9.23
2018-03-10T05:24:41.930Z,9.26
2018-03-10T05:25:51.766Z,9.23
2018-03-10T05:27:01.825Z,9.19
2018-03-10T05:28:11.617Z,9.23
2018-03-10T05:29:21.404Z,9.2
2018-03-10T05:30:31.573Z,9.19
2018-03-10T05:31:41.634Z,9.17
2018-03-10T05:32:51.453Z,9.12
2018-03-10T05:34:00.724Z,9.21
2018-03-10T05:35:10.786Z,9.12
2018-03-10T05:36:20.850Z,9.11
2018-03-10T05:37:30.376Z,9.12
2018-03-10T05:38:40.441Z,9.08
2018-03-10T05:39:50.228Z,8.94
2018-03-10T05:40:59.750Z,9.04
2018-03-10T05:42:09.543Z,9
2018-03-10T05:43:19.333Z,9.05
2018-03-10T05:44:28.877Z,9.08
2018-03-10T05:45:38.662Z,8.98
2018-03-10T05:46:48.715Z,9.03
2018-03-10T05:47:58.292Z,9.03
2018-03-10T05:49:08.358Z,9.08
2018-03-10T05:50:18.145Z,9.03
2018-03-10T05:51:28.210Z,8.9
2018-03-10T05:52:38.258Z,9.01
2018-03-10T05:53:48.050Z,9
2018-03-10T05:54:57.834Z,9.05
2018-03-10T05:56:07.634Z,9.03
2018-03-10T05:57:17.181Z,9.14
2018-03-10T05:58:26.969Z,9.19
2018-03-10T05:59:36.754Z,9.16
2018-03-10T06:00:46.826Z,9.16
2018-03-10T06:01:56.620Z,9.19
2018-03-10T06:03:06.412Z,9.29
2018-03-10T06:04:15.729Z,9.2
2018-03-10T06:05:25.627Z,9.26
2018-03-10T06:06:35.145Z,9.32
2018-03-10T06:07:45.191Z,9.37
2018-03-10T06:08:54.998Z,9.38
2018-03-10T06:10:05.104Z,9.53
2018-03-10T06:11:15.354Z,9.53
2018-03-10T06:12:25.147Z,9.57
2018-03-10T06:13:35.220Z,9.55
2018-03-10T06:14:45.026Z,9.64
2018-03-10T06:15:55.091Z,9.63
2018-03-10T06:17:05.165Z,9.75
2018-03-10T06:18:15.231Z,9.81
2018-03-10T06:19:25.033Z,9.85
2018-03-10T06:20:34.839Z,9.93
2018-03-10T06:21:44.618Z,10.02
2018-03-10T06:22:54.727Z,10.08
2018-03-10T06:24:04.525Z,10.08
2018-03-10T06:25:14.602Z,10.21
2018-03-10T06:26:24.663Z,10.21
2018-03-10T06:27:34.726Z,10.21
2018-03-10T06:28:44.298Z,10.23
2018-03-10T06:29:54.095Z,10.23
2018-03-10T06:31:04.200Z,10.38
2018-03-10T06:32:14.272Z,10.44
2018-03-10T06:33:24.326Z,10.36
2018-03-10T06:34:34.442Z,10.52
2018-03-10T06:35:44.486Z,10.66
2018-03-10T06:36:54.586Z,10.66
2018-03-10T06:38:04.378Z,10.8
2018-03-10T06:39:14.174Z,10.83
2018-03-10T06:40:23.954Z,10.83
2018-03-10T06:41:32.955Z,10.8
2018-03-10T06:42:42.747Z,10.88
2018-03-10T06:43:52.791Z,10.97
2018-03-10T06:45:02.317Z,10.97
2018-03-10T06:46:12.109Z,10.8
2018-03-10T06:47:21.907Z,10.84
2018-03-10T06:48:31.733Z,10.65
2018-03-10T06:49:41.552Z,10.7
2018-03-10T06:50:51.642Z,10.75
2018-03-10T06:52:01.747Z,10.83
2018-03-10T06:53:11.342Z,10.97
2018-03-10T06:54:21.232Z,10.94
2018-03-10T06:55:31.300Z,10.95
2018-03-10T06:56:41.339Z,10.9
2018-03-10T06:57:50.895Z,10.98
2018-03-10T06:59:00.449Z,10.85
2018-03-10T07:00:10.002Z,10.91
2018-03-10T07:01:19.284Z,10.95
2018-03-10T07:02:28.819Z,10.98
2018-03-10T07:03:38.145Z,11.05
2018-03-10T07:04:48.199Z,11.09
2018-03-10T07:05:58.287Z,11.02
2018-03-10T07:07:07.556Z,11.08
2018-03-10T07:08:17.639Z,11.2
2018-03-10T07:09:27.453Z,11.33
2018-03-10T07:10:37.519Z,11.38
2018-03-10T07:11:47.318Z,11.42
2018-03-10T07:12:57.444Z,11.56
2018-03-10T07:14:07.251Z,11.61
2018-03-10T07:15:17.077Z,11.59
2018-03-10T07:16:26.914Z,11.67
2018-03-10T07:17:35.912Z,11.56
2018-03-10T07:18:45.223Z,11.48
2018-03-10T07:19:55.305Z,11.56
2018-03-10T07:21:04.932Z,11.51
2018-03-10T07:22:14.729Z,11.56
2018-03-10T07:23:24.548Z,11.46
2018-03-10T07:24:34.607Z,11.42
2018-03-10T07:25:44.466Z,11.49
2018-03-10T07:26:54.289Z,11.46
2018-03-10T07:28:04.371Z,11.56
2018-03-10T07:29:14.193Z,11.51
2018-03-10T07:30:24.010Z,11.52
2018-03-10T07:31:33.845Z,11.67
2018-03-10T07:32:43.686Z,11.7
2018-03-10T07:33:53.479Z,11.78
2018-03-10T07:35:03.284Z,11.75
2018-03-10T07:36:13.335Z,11.89
2018-03-10T07:37:23.122Z,11.86
2018-03-10T07:38:32.397Z,12.03
2018-03-10T07:39:42.529Z,12.01
2018-03-10T07:40:52.605Z,12.03
2018-03-10T07:42:02.451Z,12.23
2018-03-10T07:43:12.738Z,12.2
2018-03-10T07:44:22.595Z,12.26
2018-03-10T07:45:32.140Z,12.37
2018-03-10T07:46:41.946Z,12.43
2018-03-10T07:47:51.749Z,12.51
2018-03-10T07:49:01.567Z,12.58
2018-03-10T07:50:11.631Z,12.66
2018-03-10T07:51:21.448Z,12.88
2018-03-10T07:52:31.263Z,13.06
2018-03-10T07:53:40.794Z,13.06
2018-03-10T07:54:50.580Z,13.17
2018-03-10T07:55:59.864Z,13.27
2018-03-10T07:57:09.915Z,13.35
2018-03-10T07:58:20.012Z,13.45
2018-03-10T07:59:30.075Z,13.54
2018-03-10T08:00:39.857Z,13.65
2018-03-10T08:01:49.411Z,13.66
2018-03-10T08:02:58.947Z,13.76
2018-03-10T08:04:08.764Z,13.87
2018-03-10T08:05:18.567Z,13.87
2018-03-10T08:06:28.115Z,13.9
2018-03-10T08:07:37.407Z,13.93
2018-03-10T08:08:46.961Z,13.88
2018-03-10T08:09:57.048Z,13.99
2018-03-10T08:11:07.141Z,14.03
2018-03-10T08:12:16.707Z,14.06
2018-03-10T08:13:26.566Z,13.97
2018-03-10T08:14:36.376Z,13.99
2018-03-10T08:15:46.178Z,13.97
2018-03-10T08:16:56.012Z,14.02
2018-03-10T08:18:05.840Z,14.09
2018-03-10T08:19:15.704Z,14.15
2018-03-10T08:20:24.965Z,14.31
2018-03-10T08:21:34.766Z,14.27
2018-03-10T08:22:44.584Z,14.33
2018-03-10T08:23:54.391Z,14.27
2018-03-10T08:25:04.469Z,14.38
2018-03-10T08:26:14.263Z,14.44
2018-03-10T08:27:24.325Z,14.48
2018-03-10T08:28:34.419Z,14.52
2018-03-10T08:29:44.478Z,14.49
2018-03-10T08:30:54.077Z,14.59
2018-03-10T08:32:03.872Z,14.61
2018-03-10T08:33:13.973Z,14.63
2018-03-10T08:34:23.803Z,14.66
2018-03-10T08:35:33.342Z,14.79
2018-03-10T08:36:43.458Z,14.75
2018-03-10T08:37:53.521Z,14.79
2018-03-10T08:39:03.638Z,14.9
2018-03-10T08:40:13.461Z,15
2018-03-10T08:41:23.549Z,15.05
2018-03-10T08:42:33.361Z,15.13
2018-03-10T08:43:43.917Z,15.16
2018-03-10T08:44:54.528Z,15.18
2018-03-10T08:46:05.619Z,15.13
2018-03-10T08:47:16.694Z,15.26
2018-03-10T08:48:27.618Z,15.3
2018-03-10T08:49:38.413Z,15.35
2018-03-10T08:50:49.203Z,15.44
2018-03-10T08:52:00.134Z,15.47
2018-03-10T08:53:11.362Z,15.43
2018-03-10T08:54:22.912Z,15.58
2018-03-10T08:55:35.263Z,15.55
2018-03-10T08:56:46.652Z,15.65
2018-03-10T08:57:57.189Z,15.65
2018-03-10T08:59:08.485Z,15.73
2018-03-10T09:00:19.848Z,15.65
2018-03-10T09:01:30.711Z,15.7
2018-03-10T09:02:40.916Z,15.7
2018-03-10T09:03:51.999Z,15.67
2018-03-10T09:05:03.032Z,15.77
2018-03-10T09:06:13.968Z,15.8
2018-03-10T09:07:24.831Z,15.83
2018-03-10T09:08:35.199Z,15.8
2018-03-10T09:09:45.054Z,15.88
2018-03-10T09:10:54.941Z,15.91
2018-03-10T09:12:04.832Z,16.02
2018-03-10T09:13:14.925Z,16.02
2018-03-10T09:14:24.738Z,16.06
2018-03-10T09:15:34.303Z,16.16
2018-03-10T09:16:44.380Z,16.3
2018-03-10T09:17:53.922Z,16.36
2018-03-10T09:19:03.733Z,16.47
2018-03-10T09:20:13.540Z,16.36
2018-03-10T09:21:23.375Z,16.49
2018-03-10T09:22:33.191Z,16.55
2018-03-10T09:23:43.350Z,16.63
2018-03-10T09:24:53.174Z,16.62
2018-03-10T09:26:03.261Z,16.8
2018-03-10T09:27:13.089Z,16.85
2018-03-10T09:28:22.902Z,16.88
2018-03-10T09:29:32.471Z,17
2018-03-10T09:30:42.555Z,16.97
2018-03-10T09:31:52.623Z,16.92
2018-03-10T09:33:02.707Z,17.03
2018-03-10T09:34:12.508Z,16.97
2018-03-10T09:35:21.590Z,16.97
2018-03-10T09:36:31.409Z,17.07
2018-03-10T09:37:41.531Z,17.05
2018-03-10T09:38:51.368Z,17.24
2018-03-10T09:40:01.467Z,17.2
2018-03-10T09:41:11.602Z,17.13
2018-03-10T09:42:21.696Z,17.22
2018-03-10T09:43:31.552Z,17.24
2018-03-10T09:44:41.658Z,17.3
2018-03-10T09:45:51.771Z,17.32
2018-03-10T09:47:01.931Z,17.36
2018-03-10T09:48:12.023Z,17.42
2018-03-10T09:49:22.130Z,17.42
2018-03-10T09:50:32.110Z,17.45
2018-03-10T09:51:42.217Z,17.52
2018-03-10T09:52:52.041Z,17.57
2018-03-10T09:54:02.107Z,17.52
2018-03-10T09:55:12.206Z,17.66
2018-03-10T09:56:22.282Z,17.74
2018-03-10T09:57:32.097Z,17.73
2018-03-10T09:58:41.979Z,17.8
2018-03-10T09:59:52.063Z,17.81
2018-03-10T10:01:01.947Z,17.87
2018-03-10T10:02:12.239Z,17.77
2018-03-10T10:03:22.829Z,17.8
2018-03-10T10:04:33.233Z,17.79
2018-03-10T10:05:43.924Z,17.8
2018-03-10T10:06:54.788Z,17.87
2018-03-10T10:08:05.903Z,17.96
2018-03-10T10:09:16.265Z,17.96
2018-03-10T10:10:26.149Z,17.95
2018-03-10T10:11:36.782Z,17.88
2018-03-10T10:12:47.131Z,17.98
2018-03-10T10:13:57.004Z,17.94
2018-03-10T10:15:06.582Z,17.92
2018-03-10T10:16:16.705Z,17.9
2018-03-10T10:17:26.284Z,17.92
2018-03-10T10:18:36.405Z,17.95
2018-03-10T10:19:46.269Z,17.87
2018-03-10T10:20:56.346Z,17.98
2018-03-10T10:22:06.466Z,17.92
2018-03-10T10:23:16.136Z,18.02
2018-03-10T10:24:26.259Z,18.01
2018-03-10T10:25:36.366Z,18.05
2018-03-10T10:26:46.199Z,18.06
2018-03-10T10:27:55.894Z,18.08
2018-03-10T10:29:05.819Z,18.08
2018-03-10T10:30:15.942Z,18.19
2018-03-10T10:31:25.614Z,18.2
2018-03-10T10:32:35.218Z,18.2
2018-03-10T10:33:44.883Z,18.2
2018-03-10T10:34:54.992Z,18.21
2018-03-10T10:36:05.103Z,18.24
2018-03-10T10:37:14.958Z,18.27
2018-03-10T10:38:24.811Z,18.32
2018-03-10T10:39:35.033Z,18.27
2018-03-10T10:40:45.192Z,18.31
2018-03-10T10:41:55.035Z,18.24
2018-03-10T10:43:05.393Z,18.2
2018-03-10T10:44:15.790Z,18.24
2018-03-10T10:45:25.432Z,18.36
2018-03-10T10:46:35.604Z,18.16
2018-03-10T10:47:45.175Z,18.17
2018-03-10T10:48:55.026Z,18.17
2018-03-10T10:50:04.848Z,18.26
2018-03-10T10:51:14.805Z,18.34
2018-03-10T10:52:24.913Z,18.29
2018-03-10T10:53:34.471Z,18.34
2018-03-10T10:54:44.298Z,18.42
2018-03-10T10:55:54.130Z,18.47
2018-03-10T10:57:04.241Z,18.54
2018-03-10T10:58:14.358Z,18.42
2018-03-10T10:59:24.192Z,18.51
2018-03-10T11:00:34.021Z,18.54
2018-03-10T11:01:44.113Z,18.54
2018-03-10T11:02:54.231Z,18.54
2018-03-10T11:04:04.344Z,18.65
2018-03-10T11:05:14.479Z,18.59
2018-03-10T11:06:24.338Z,18.68
2018-03-10T11:07:34.229Z,18.69
2018-03-10T11:08:44.425Z,18.71
2018-03-10T11:09:54.347Z,18.74
2018-03-10T11:11:04.463Z,18.81
2018-03-10T11:12:14.590Z,18.89
2018-03-10T11:13:24.414Z,18.87
2018-03-10T11:14:34.509Z,18.9
2018-03-10T11:15:44.621Z,18.86
2018-03-10T11:16:54.817Z,18.89
2018-03-10T11:18:04.478Z,18.89
2018-03-10T11:19:14.058Z,18.86
2018-03-10T11:20:23.951Z,18.86
2018-03-10T11:21:34.063Z,18.94
2018-03-10T11:22:43.886Z,18.89
2018-03-10T11:23:53.738Z,18.97
2018-03-10T11:25:03.347Z,19.1
2018-03-10T11:26:13.361Z,19.07
2018-03-10T11:27:23.219Z,19.23
2018-03-10T11:28:33.340Z,19.28
2018-03-10T11:29:43.480Z,19.32
2018-03-10T11:30:53.626Z,19.38
2018-03-10T11:32:03.538Z,19.45
2018-03-10T11:33:13.395Z,19.38
2018-03-10T11:34:23.326Z,19.53
2018-03-10T11:35:33.442Z,19.56
2018-03-10T11:36:43.016Z,19.6
2018-03-10T11:37:52.894Z,19.68
2018-03-10T11:39:02.999Z,19.68
2018-03-10T11:40:13.126Z,19.67
2018-03-10T11:41:22.712Z,19.61
2018-03-10T11:42:33.147Z,19.64
2018-03-10T11:43:43.120Z,19.53
2018-03-10T11:44:53.289Z,19.63
2018-03-10T11:46:03.407Z,19.45
2018-03-10T11:47:13.253Z,19.56
2018-03-10T11:48:23.108Z,19.49
2018-03-10T11:49:32.949Z,19.37
2018-03-10T11:50:43.049Z,19.42
2018-03-10T11:51:53.165Z,19.4
2018-03-10T11:53:03.286Z,19.56
2018-03-10T11:54:13.125Z,19.47
2018-03-10T11:55:23.269Z,19.52
2018-03-10T11:56:33.393Z,19.52
2018-03-10T11:57:42.966Z,19.68
2018-03-10T11:58:53.051Z,19.6
2018-03-10T12:00:02.938Z,19.63
2018-03-10T12:01:12.862Z,19.63
2018-03-10T12:02:22.446Z,19.63
2018-03-10T12:03:32.576Z,19.67
2018-03-10T12:04:42.541Z,19.61
2018-03-10T12:05:52.408Z,19.67
2018-03-10T12:07:02.615Z,19.78
2018-03-10T12:08:12.535Z,19.85
2018-03-10T12:09:22.715Z,19.63
2018-03-10T12:10:32.298Z,19.67
2018-03-10T12:11:42.387Z,19.63
2018-03-10T12:12:52.557Z,19.74
2018-03-10T12:14:02.638Z,19.83
2018-03-10T12:15:12.745Z,19.85
2018-03-10T12:16:22.598Z,19.93
2018-03-10T12:17:32.727Z,20.01
2018-03-10T12:18:42.878Z,19.97
2018-03-10T12:19:53.000Z,19.85
2018-03-10T12:21:03.126Z,19.74
2018-03-10T12:22:13.228Z,19.65
2018-03-10T12:23:23.338Z,19.53
2018-03-10T12:24:33.506Z,19.55
2018-03-10T12:25:43.618Z,19.49
2018-03-10T12:26:53.480Z,19.45
2018-03-10T12:28:03.597Z,19.63
2018-03-10T12:29:13.718Z,19.63
2018-03-10T12:30:23.876Z,19.57
2018-03-10T12:31:33.993Z,19.65
2018-03-10T12:32:43.833Z,19.64
2018-03-10T12:33:53.940Z,19.68
2018-03-10T12:35:03.782Z,19.67
2018-03-10T12:36:13.959Z,19.65
2018-03-10T12:37:23.832Z,19.74
2018-03-10T12:38:33.939Z,19.89
2018-03-10T12:39:44.067Z,19.98
2018-03-10T12:40:54.169Z,20.26
2018-03-10T12:42:04.043Z,20.48
2018-03-10T12:43:13.936Z,20.75
2018-03-10T12:44:23.260Z,20.88
2018-03-10T12:45:33.114Z,21.08
2018-03-10T12:46:42.698Z,21.31
2018-03-10T12:47:52.882Z,21.55
2018-03-10T12:49:03.027Z,21.56
2018-03-10T12:50:12.883Z,21.56
2018-03-10T12:51:22.773Z,21.61
2018-03-10T12:52:32.928Z,21.48
2018-03-10T12:53:43.106Z,21.36
2018-03-10T12:54:53.369Z,21.21
2018-03-10T12:56:03.534Z,21.03
2018-03-10T12:57:13.764Z,20.96
2018-03-10T12:58:23.343Z,20.86
2018-03-10T12:59:33.429Z,20.82
2018-03-10T13:00:43.539Z,20.86
2018-03-10T13:01:53.749Z,20.67
2018-03-10T13:03:03.722Z,20.58
2018-03-10T13:04:13.405Z,20.66
2018-03-10T13:05:23.793Z,20.56
2018-03-10T13:06:33.905Z,20.57
2018-03-10T13:07:43.758Z,20.57
2018-03-10T13:08:53.981Z,20.49
2018-03-10T13:10:04.024Z,20.49
2018-03-10T13:11:13.996Z,20.46
2018-03-10T13:12:23.838Z,20.46
2018-03-10T13:13:33.507Z,20.37
2018-03-10T13:15:02.327Z,20.3
2018-03-10T13:16:12.441Z,20.23
2018-03-10T13:17:22.295Z,20.32
2018-03-10T13:18:31.909Z,20.23
2018-03-10T13:19:41.747Z,20.23
2018-03-10T13:20:51.320Z,20.18
2018-03-10T13:22:01.250Z,20.12
2018-03-10T13:23:11.375Z,20.1
2018-03-10T13:24:21.011Z,20.12
2018-03-10T13:25:30.867Z,19.95
2018-03-10T13:26:40.690Z,19.83
2018-03-10T13:27:50.307Z,19.71
2018-03-10T13:29:00.186Z,19.74
2018-03-10T13:30:10.326Z,19.78
2018-03-10T13:31:20.318Z,19.97
2018-03-10T13:32:30.592Z,19.97
2018-03-10T13:33:40.749Z,20
2018-03-10T13:34:50.938Z,19.98
2018-03-10T13:36:01.133Z,19.9
2018-03-10T13:37:10.960Z,19.93
2018-03-10T13:38:20.975Z,20.11
2018-03-10T13:39:31.450Z,20.08
2018-03-10T13:40:41.335Z,20.07
2018-03-10T13:41:51.552Z,20.15
2018-03-10T13:43:01.654Z,19.95
2018-03-10T13:44:11.731Z,19.82
2018-03-10T13:45:22.022Z,19.78
2018-03-10T13:46:31.825Z,19.79
2018-03-10T13:47:42.015Z,19.68
2018-03-10T13:48:52.103Z,19.57
2018-03-10T13:50:02.202Z,19.67
2018-03-10T13:51:12.404Z,19.6
2018-03-10T13:52:22.834Z,19.6
2018-03-10T13:53:32.704Z,19.63
2018-03-10T13:54:42.883Z,19.64
2018-03-10T13:55:53.047Z,19.67
2018-03-10T13:57:03.187Z,19.64
2018-03-10T13:58:13.013Z,19.64
2018-03-10T13:59:23.117Z,19.67
2018-03-10T14:00:32.957Z,19.72
2018-03-10T14:01:43.076Z,19.64
2018-03-10T14:02:53.386Z,19.65
2018-03-10T14:04:03.535Z,19.56
2018-03-10T14:05:13.430Z,19.45
2018-03-10T14:06:23.281Z,19.42
2018-03-10T14:07:33.178Z,19.23
2018-03-10T14:08:43.067Z,19.19
2018-03-10T14:09:52.924Z,19.13
2018-03-10T14:11:02.498Z,19.13
2018-03-10T14:12:12.605Z,19.09
2018-03-10T14:13:22.479Z,19.13
2018-03-10T14:14:32.636Z,19.07
2018-03-10T14:15:43.219Z,19.13
2018-03-10T14:16:53.320Z,19.16
2018-03-10T14:18:03.190Z,19.28
2018-03-10T14:19:13.027Z,19.35
2018-03-10T14:20:22.978Z,19.52
2018-03-10T14:21:33.111Z,19.57
2018-03-10T14:22:43.280Z,19.52
2018-03-10T14:23:53.440Z,19.49
2018-03-10T14:25:03.016Z,19.56
2018-03-10T14:26:13.176Z,19.53
2018-03-10T14:27:23.296Z,19.46
2018-03-10T14:28:33.146Z,19.46
2018-03-10T14:29:42.990Z,19.3
2018-03-10T14:30:53.114Z,19.31
2018-03-10T14:32:03.039Z,19.31
2018-03-10T14:33:13.153Z,19.25
2018-03-10T14:34:22.990Z,19.23
2018-03-10T14:35:32.595Z,19.19
2018-03-10T14:36:42.724Z,19.19
2018-03-10T14:37:52.889Z,19.09
2018-03-10T14:39:03.061Z,19.09
2018-03-10T14:40:13.184Z,19.15
2018-03-10T14:41:23.410Z,19.1
2018-03-10T14:42:33.257Z,19
2018-03-10T14:43:43.465Z,19.05
2018-03-10T14:44:53.586Z,18.86
2018-03-10T14:46:03.147Z,18.86
2018-03-10T14:47:13.236Z,18.84
2018-03-10T14:48:23.151Z,18.75
2018-03-10T14:49:33.314Z,18.61
2018-03-10T14:50:42.966Z,18.6
2018-03-10T14:51:52.799Z,18.47
2018-03-10T14:53:02.651Z,18.44
2018-03-10T14:54:12.751Z,18.42
2018-03-10T14:55:22.774Z,18.35
2018-03-10T14:56:32.928Z,18.17
2018-03-10T14:57:42.770Z,18.17
2018-03-10T14:58:52.866Z,18.2
2018-03-10T15:00:02.949Z,18.27
2018-03-10T15:01:13.082Z,18.19
2018-03-10T15:02:23.174Z,18.17
2018-03-10T15:03:32.989Z,18.08
2018-03-10T15:04:42.828Z,18.02
2018-03-10T15:05:52.395Z,17.96
2018-03-10T15:07:02.546Z,17.88
2018-03-10T15:08:12.394Z,17.71
2018-03-10T15:09:22.236Z,17.77
2018-03-10T15:10:32.309Z,17.58
2018-03-10T15:11:42.417Z,17.55
2018-03-10T15:12:52.522Z,17.5
2018-03-10T15:14:02.369Z,17.45
2018-03-10T15:15:12.479Z,17.43
2018-03-10T15:16:22.585Z,17.32
2018-03-10T15:17:32.862Z,17.31
2018-03-10T15:18:43.123Z,17.36
2018-03-10T15:19:53.219Z,17.28
2018-03-10T15:21:03.581Z,17.25
2018-03-10T15:22:13.833Z,17.28
2018-03-10T15:23:23.977Z,17.17
2018-03-10T15:24:34.540Z,17.09
2018-03-10T15:25:44.050Z,17.07
2018-03-10T15:26:54.247Z,17.02
2018-03-10T15:28:04.371Z,17.03
2018-03-10T15:29:14.504Z,17.09
2018-03-10T15:30:24.835Z,16.85
2018-03-10T15:31:34.972Z,16.92
2018-03-10T15:32:45.050Z,17.05
2018-03-10T15:33:55.157Z,16.91
2018-03-10T15:35:05.258Z,16.92
2018-03-10T15:36:15.370Z,16.92
2018-03-10T15:37:25.211Z,16.77
2018-03-10T15:38:35.095Z,16.8
2018-03-10T15:39:45.198Z,16.84
2018-03-10T15:40:55.033Z,16.77
2018-03-10T15:42:04.917Z,16.74